Time;durP1;ratioP1;P1;durP2;ratioP2;P2;SDS_P1;SDS_P2;PMS_P1;PMS_P2;Temp;Humidity;BMP_temperature;BMP_pressure;BME280_temperature;BME280_humidity;BME280_pressure;Samples;Min_cycle;Max_cycle;Signal;HPM_P1;HPM_P2
2024/02/03 00:00:13;;;;;;;21.83;12.80;;;;;;;;;;4992047;28;20080;-75
2024/02/03 00:02:39;;;;;;;;;;;;;;;;;;4990336;28;20053;-76
2024/02/03 00:05:08;;;;;;;22.25;13.25;;;;;;;;;;4973377;28;20555;-75
2024/02/03 00:07:35;;;;;;;20.73;12.48;;;;;;;;;;4970999;28;20057;-76
2024/02/03 00:10:01;;;;;;;21.88;12.48;;;;;;;;;;4993081;28;20032;-74
2024/02/03 00:12:28;;;;;;;23.83;12.80;;;;;;;;;;4970444;28;20541;-74
2024/02/03 00:14:59;;;;;;;21.92;11.43;;;;;;;;;;4992016;28;20029;-77
2024/02/03 00:17:26;;;;;;;24.63;12.95;;;;;;;;;;4990417;28;20044;-74
2024/02/03 00:19:54;;;;;;;21.55;13.18;;;;;;;;;;4992445;28;20027;-75
2024/02/03 00:22:21;;;;;;;24.25;13.15;;;;;;;;;;4991415;28;20046;-74
2024/02/03 00:24:59;;;;;;;24.08;14.05;;;;;;;;;;5012595;28;20053;-77
2024/02/03 00:27:27;;;;;;;29.40;14.48;;;;;;;;;;5011865;28;20735;-76
2024/02/03 00:29:53;;;;;;;21.63;13.45;;;;;;;;;;4997200;28;20072;-74
2024/02/03 00:32:22;;;;;;;25.98;14.70;;;;;;;;;;5010582;28;20042;-77
2024/02/03 00:34:49;;;;;;;26.67;15.07;;;;;;;;;;5015181;28;20040;-74
2024/02/03 00:37:17;;;;;;;22.90;14.00;;;;;;;;;;5016490;28;20025;-75
2024/02/03 00:39:44;;;;;;;25.65;14.15;;;;;;;;;;4990463;28;20041;-75
2024/02/03 00:42:10;;;;;;;22.30;14.05;;;;;;;;;;5012704;28;20596;-75
2024/02/03 00:44:38;;;;;;;19.27;12.27;;;;;;;;;;4990143;28;20053;-74
2024/02/03 00:47:06;;;;;;;24.35;12.55;;;;;;;;;;5008790;28;20025;-74
2024/02/03 00:49:32;;;;;;;22.98;13.35;;;;;;;;;;5008962;28;20037;-74
2024/02/03 00:51:58;;;;;;;;;;;;;;;;;;5014426;28;20033;-76
2024/02/03 00:54:24;;;;;;;25.73;14.98;;;;;;;;;;4993181;28;19917;-74
2024/02/03 00:56:53;;;;;;;29.58;16.90;;;;;;;;;;5012806;28;20033;-74
2024/02/03 00:59:19;;;;;;;24.55;17.05;;;;;;;;;;4998251;28;20029;-74
2024/02/03 01:01:45;;;;;;;25.38;18.08;;;;;;;;;;4992552;28;20144;-74
2024/02/03 01:04:11;;;;;;;23.13;16.23;;;;;;;;;;4996746;28;20085;-74
2024/02/03 01:06:37;;;;;;;26.42;17.30;;;;;;;;;;5011550;28;20526;-74
2024/02/03 01:09:03;;;;;;;30.90;19.50;;;;;;;;;;4992819;28;20025;-73
2024/02/03 01:11:33;;;;;;;30.23;19.17;;;;;;;;;;4993561;28;20132;-74
2024/02/03 01:13:59;;;;;;;26.20;17.55;;;;;;;;;;4995132;28;20034;-74
2024/02/03 01:16:26;;;;;;;27.20;19.30;;;;;;;;;;5012082;28;20273;-74
2024/02/03 01:18:53;;;;;;;26.63;18.13;;;;;;;;;;4995374;28;20461;-74
2024/02/03 01:21:31;;;;;;;27.13;18.33;;;;;;;;;;4992389;28;20034;-73
2024/02/03 01:23:57;;;;;;;26.17;18.52;;;;;;;;;;4994375;28;20044;-74
2024/02/03 01:26:26;;;;;;;27.48;18.75;;;;;;;;;;5012172;28;20130;-73
2024/02/03 01:28:54;;;;;;;30.63;19.27;;;;;;;;;;4992552;28;20026;-75
2024/02/03 01:31:21;;;;;;;29.38;19.75;;;;;;;;;;4979337;28;20535;-76
2024/02/03 01:33:47;;;;;;;28.83;19.65;;;;;;;;;;5011398;28;20017;-74
2024/02/03 01:36:15;;;;;;;32.55;21.23;;;;;;;;;;5013443;28;20041;-74
2024/02/03 01:38:48;;;;;;;27.58;18.70;;;;;;;;;;4991983;28;20088;-74
2024/02/03 01:41:15;;;;;;;25.10;16.33;;;;;;;;;;5013300;28;20586;-74
2024/02/03 01:43:40;;;;;;;;;;;;;;;;;;4992467;28;20064;-74
2024/02/03 01:46:07;;;;;;;23.55;15.75;;;;;;;;;;4997403;28;20019;-75
2024/02/03 01:48:34;;;;;;;;;;;;;;;;;;4995164;28;20519;-74
2024/02/03 01:51:03;;;;;;;19.95;12.45;;;;;;;;;;4994075;28;20462;-74
2024/02/03 01:53:30;;;;;;;17.88;10.85;;;;;;;;;;5013875;28;20025;-74
2024/02/03 01:55:59;;;;;;;18.85;10.52;;;;;;;;;;4997750;28;20040;-74
2024/02/03 01:58:26;;;;;;;19.98;10.25;;;;;;;;;;4991450;28;20055;-74
2024/02/03 02:00:53;;;;;;;15.90;9.68;;;;;;;;;;4994598;28;20028;-74
2024/02/03 02:03:20;;;;;;;18.20;9.85;;;;;;;;;;5015344;28;20041;-73
2024/02/03 02:05:48;;;;;;;19.83;9.68;;;;;;;;;;4992157;28;20041;-76
2024/02/03 02:08:15;;;;;;;20.65;9.40;;;;;;;;;;4975308;28;20025;-74
2024/02/03 02:10:41;;;;;;;17.40;8.90;;;;;;;;;;5010924;28;20033;-75
2024/02/03 02:13:08;;;;;;;15.07;8.23;;;;;;;;;;4990706;28;20480;-75
2024/02/03 02:15:36;;;;;;;20.38;9.00;;;;;;;;;;4974450;28;20485;-75
2024/02/03 02:18:04;;;;;;;17.98;8.25;;;;;;;;;;5012155;28;20033;-75
2024/02/03 02:20:31;;;;;;;14.73;7.88;;;;;;;;;;5008830;28;20111;-75
2024/02/03 02:22:58;;;;;;;15.05;7.82;;;;;;;;;;4994076;28;20029;-76
2024/02/03 02:25:24;;;;;;;15.73;8.20;;;;;;;;;;5009864;28;20046;-75
2024/02/03 02:27:53;;;;;;;14.63;7.85;;;;;;;;;;5014604;28;20025;-76
2024/02/03 02:30:20;;;;;;;15.35;8.40;;;;;;;;;;5007017;28;20038;-74
2024/02/03 02:32:46;;;;;;;16.27;8.45;;;;;;;;;;5008067;28;20056;-75
2024/02/03 02:35:16;;;;;;;17.73;7.93;;;;;;;;;;4992691;28;20389;-74
2024/02/03 02:37:43;;;;;;;16.67;8.57;;;;;;;;;;5009719;28;20026;-74
2024/02/03 02:40:09;;;;;;;18.20;9.00;;;;;;;;;;5007956;28;20111;-74
2024/02/03 02:42:35;;;;;;;;;;;;;;;;;;5009575;28;20032;-74
2024/02/03 02:45:01;;;;;;;18.05;8.52;;;;;;;;;;4992834;28;19914;-74
2024/02/03 02:47:30;;;;;;;17.25;8.90;;;;;;;;;;5005685;28;20057;-74
2024/02/03 02:49:56;;;;;;;15.48;7.45;;;;;;;;;;4990166;28;20219;-74
2024/02/03 02:52:22;;;;;;;20.33;10.45;;;;;;;;;;4996020;28;20038;-74
2024/02/03 02:54:48;;;;;;;17.02;9.25;;;;;;;;;;5011454;28;20062;-74
2024/02/03 02:57:15;;;;;;;17.65;9.00;;;;;;;;;;4990768;28;20037;-74
2024/02/03 02:59:41;;;;;;;;;;;;;;;;;;4992853;28;20135;-74
2024/02/03 03:02:08;;;;;;;21.07;11.97;;;;;;;;;;5011389;28;20537;-77
2024/02/03 03:04:38;;;;;;;18.10;11.35;;;;;;;;;;4985941;28;20307;-74
2024/02/03 03:07:05;;;;;;;19.05;11.55;;;;;;;;;;4989965;28;20076;-74
2024/02/03 03:09:33;;;;;;;18.25;10.27;;;;;;;;;;5008015;28;20044;-74
2024/02/03 03:11:59;;;;;;;18.30;9.88;;;;;;;;;;5014725;28;20063;-74
2024/02/03 03:14:26;;;;;;;16.92;9.13;;;;;;;;;;4994847;28;20042;-74
2024/02/03 03:16:52;;;;;;;16.25;8.70;;;;;;;;;;4995474;28;20100;-74
2024/02/03 03:19:18;;;;;;;13.70;7.18;;;;;;;;;;5007294;28;21044;-74
2024/02/03 03:21:45;;;;;;;15.40;7.20;;;;;;;;;;5011159;28;20041;-74
2024/02/03 03:24:11;;;;;;;14.65;7.10;;;;;;;;;;4998113;28;20037;-74
2024/02/03 03:26:45;;;;;;;18.20;7.13;;;;;;;;;;5010592;28;20034;-74
2024/02/03 03:29:12;;;;;;;16.73;6.78;;;;;;;;;;5015402;28;20091;-74
2024/02/03 03:31:39;;;;;;;13.43;6.13;;;;;;;;;;4997681;28;20033;-74
2024/02/03 03:34:08;;;;;;;14.13;5.32;;;;;;;;;;4996448;28;20049;-74
2024/02/03 03:36:35;;;;;;;13.93;5.50;;;;;;;;;;4995148;28;20025;-74
2024/02/03 03:39:03;;;;;;;12.18;5.40;;;;;;;;;;5015183;28;20029;-74
2024/02/03 03:41:29;;;;;;;12.10;4.63;;;;;;;;;;5007209;28;20045;-74
2024/02/03 03:43:55;;;;;;;11.32;4.85;;;;;;;;;;5013381;28;20028;-75
2024/02/03 03:46:23;;;;;;;13.45;5.45;;;;;;;;;;5017783;28;20637;-74
2024/02/03 03:48:49;;;;;;;12.73;4.88;;;;;;;;;;4996211;28;20033;-74
2024/02/03 03:51:17;;;;;;;13.15;4.90;;;;;;;;;;5013153;28;20589;-74
2024/02/03 03:53:44;;;;;;;12.73;5.05;;;;;;;;;;5012985;28;20156;-74
2024/02/03 03:56:10;;;;;;;10.63;4.80;;;;;;;;;;5012881;28;20034;-74
2024/02/03 03:58:37;;;;;;;12.38;5.10;;;;;;;;;;4994603;28;20093;-74
2024/02/03 04:01:03;;;;;;;11.52;4.65;;;;;;;;;;5017422;28;20040;-74
2024/02/03 04:03:29;;;;;;;11.35;4.55;;;;;;;;;;4993041;28;20068;-74
2024/02/03 04:05:55;;;;;;;11.30;4.82;;;;;;;;;;4997401;28;20044;-74
2024/02/03 04:08:32;;;;;;;13.57;4.93;;;;;;;;;;5017441;28;20041;-73
2024/02/03 04:10:59;;;;;;;13.82;5.50;;;;;;;;;;5016151;28;20067;-75
2024/02/03 04:13:26;;;;;;;12.57;5.68;;;;;;;;;;5013636;28;20091;-74
2024/02/03 04:15:53;;;;;;;;;;;;;;;;;;5017554;28;20033;-73
2024/02/03 04:18:20;;;;;;;10.60;4.82;;;;;;;;;;5009385;28;19960;-74
2024/02/03 04:20:47;;;;;;;11.35;5.32;;;;;;;;;;5009715;28;20060;-73
2024/02/03 04:23:14;;;;;;;12.27;5.18;;;;;;;;;;4999061;28;20022;-75
2024/02/03 04:25:41;;;;;;;11.90;4.72;;;;;;;;;;5011577;28;20099;-74
2024/02/03 04:28:10;;;;;;;12.88;5.88;;;;;;;;;;4999368;28;20029;-74
2024/02/03 04:30:38;;;;;;;11.60;5.25;;;;;;;;;;4977547;28;20124;-76
2024/02/03 04:33:05;;;;;;;10.15;4.57;;;;;;;;;;5013922;28;20036;-74
2024/02/03 04:35:33;;;;;;;12.48;4.70;;;;;;;;;;4993025;28;20786;-74
2024/02/03 04:38:02;;;;;;;12.25;5.38;;;;;;;;;;4997247;28;21157;-74
2024/02/03 04:40:32;;;;;;;11.07;5.15;;;;;;;;;;4978409;28;20773;-74
2024/02/03 04:42:58;;;;;;;13.52;5.68;;;;;;;;;;5015773;28;20820;-74
2024/02/03 04:45:24;;;;;;;14.55;5.95;;;;;;;;;;5014898;28;20628;-74
2024/02/03 04:47:55;;;;;;;13.38;5.20;;;;;;;;;;4996143;28;20033;-74
2024/02/03 04:50:23;;;;;;;12.00;5.40;;;;;;;;;;4995019;28;20069;-74
2024/02/03 04:52:50;;;;;;;13.75;6.70;;;;;;;;;;5012223;28;20142;-74
2024/02/03 04:55:18;;;;;;;14.40;6.93;;;;;;;;;;4994136;28;20126;-74
2024/02/03 04:57:45;;;;;;;14.65;6.80;;;;;;;;;;4995088;28;20596;-74
2024/02/03 05:00:13;;;;;;;16.50;6.78;;;;;;;;;;4992190;28;20129;-74
2024/02/03 05:02:40;;;;;;;15.10;7.10;;;;;;;;;;5010340;28;20021;-74
2024/02/03 05:05:08;;;;;;;12.40;5.93;;;;;;;;;;5002515;28;20063;-74
2024/02/03 05:07:35;;;;;;;13.90;6.65;;;;;;;;;;5014207;28;20029;-75
2024/02/03 05:10:02;;;;;;;14.40;6.75;;;;;;;;;;5000445;28;20044;-75
2024/02/03 05:12:28;;;;;;;14.20;6.80;;;;;;;;;;4996505;28;20108;-74
2024/02/03 05:14:54;;;;;;;16.10;7.43;;;;;;;;;;4999919;28;20030;-75
2024/02/03 05:17:20;;;;;;;14.93;7.60;;;;;;;;;;4995150;28;20032;-75
2024/02/03 05:19:49;;;;;;;14.60;7.53;;;;;;;;;;5015174;28;20025;-74
2024/02/03 05:22:15;;;;;;;18.10;8.88;;;;;;;;;;5011539;28;20033;-75
2024/02/03 05:24:42;;;;;;;16.55;8.38;;;;;;;;;;5013482;28;20045;-74
2024/02/03 05:27:09;;;;;;;16.63;7.57;;;;;;;;;;5015796;28;20306;-74
2024/02/03 05:29:35;;;;;;;13.93;7.30;;;;;;;;;;4996040;28;20037;-75
2024/02/03 05:32:02;;;;;;;15.82;8.23;;;;;;;;;;5013212;28;20041;-74
2024/02/03 05:34:28;;;;;;;13.93;7.82;;;;;;;;;;4995141;28;20044;-74
2024/02/03 05:36:59;;;;;;;16.65;9.52;;;;;;;;;;4996022;28;20087;-74
2024/02/03 05:39:25;;;;;;;18.75;10.70;;;;;;;;;;4993967;28;20025;-74
2024/02/03 05:41:52;;;;;;;15.10;8.13;;;;;;;;;;5014852;28;20033;-74
2024/02/03 05:44:18;;;;;;;14.63;7.10;;;;;;;;;;5013868;28;20037;-74
2024/02/03 05:46:44;;;;;;;18.63;7.53;;;;;;;;;;4992742;28;20488;-74
2024/02/03 05:49:11;;;;;;;25.15;8.30;;;;;;;;;;5013550;28;20030;-74
2024/02/03 05:51:38;;;;;;;18.95;8.20;;;;;;;;;;5008678;28;20119;-74
2024/02/03 05:54:04;;;;;;;18.88;8.18;;;;;;;;;;4994973;28;20652;-75
2024/02/03 05:56:37;;;;;;;13.15;6.20;;;;;;;;;;4993380;28;20041;-73
2024/02/03 05:59:04;;;;;;;12.70;5.40;;;;;;;;;;5016352;28;20044;-74
2024/02/03 06:01:31;;;;;;;;;;;;;;;;;;5013549;28;20118;-73
2024/02/03 06:03:57;;;;;;;11.10;5.13;;;;;;;;;;4994869;28;19923;-74
2024/02/03 06:06:23;;;;;;;9.18;4.38;;;;;;;;;;4997559;28;20193;-74
2024/02/03 06:08:49;;;;;;;12.82;4.82;;;;;;;;;;4994192;28;20140;-74
2024/02/03 06:11:17;;;;;;;10.52;4.60;;;;;;;;;;4995433;28;20052;-74
2024/02/03 06:13:45;;;;;;;11.13;4.30;;;;;;;;;;4995801;28;20646;-74
2024/02/03 06:16:11;;;;;;;11.18;4.70;;;;;;;;;;4995896;28;20067;-74
2024/02/03 06:18:38;;;;;;;14.75;4.25;;;;;;;;;;4993928;28;20037;-76
2024/02/03 06:21:05;;;;;;;13.73;4.18;;;;;;;;;;4991801;28;20052;-76
2024/02/03 06:23:31;;;;;;;12.82;3.80;;;;;;;;;;5006963;28;20029;-76
2024/02/03 06:25:58;;;;;;;10.18;4.28;;;;;;;;;;5010497;28;20045;-76
2024/02/03 06:28:25;;;;;;;10.20;3.65;;;;;;;;;;5012643;28;20516;-76
2024/02/03 06:30:51;;;;;;;10.95;3.85;;;;;;;;;;5012292;28;20092;-76
2024/02/03 06:33:19;;;;;;;10.73;4.78;;;;;;;;;;4993516;28;20651;-76
2024/02/03 06:35:47;;;;;;;11.35;4.60;;;;;;;;;;4993988;28;20057;-76
2024/02/03 06:38:14;;;;;;;11.82;4.82;;;;;;;;;;5010889;28;20676;-76
2024/02/03 06:40:42;;;;;;;12.00;4.47;;;;;;;;;;5010346;28;20029;-76
2024/02/03 06:43:09;;;;;;;9.45;4.32;;;;;;;;;;5009150;28;20037;-77
2024/02/03 06:45:35;;;;;;;13.20;5.22;;;;;;;;;;4990101;28;20022;-74
2024/02/03 06:48:03;;;;;;;11.02;4.63;;;;;;;;;;4997528;28;20064;-74
2024/02/03 06:50:30;;;;;;;12.48;5.03;;;;;;;;;;4994693;28;20063;-76
2024/02/03 06:52:56;;;;;;;12.50;5.10;;;;;;;;;;5016052;28;20100;-76
2024/02/03 06:55:22;;;;;;;10.88;4.28;;;;;;;;;;5014348;28;20025;-76
2024/02/03 06:57:50;;;;;;;9.18;3.85;;;;;;;;;;4992637;28;20033;-74
2024/02/03 07:00:16;;;;;;;10.68;4.47;;;;;;;;;;5015412;28;20124;-75
2024/02/03 07:02:42;;;;;;;;;;;;;;;;;;4975482;28;20068;-75
2024/02/03 07:05:10;;;;;;;11.07;4.03;;;;;;;;;;4995278;28;19954;-74
2024/02/03 07:07:36;;;;;;;14.30;5.80;;;;;;;;;;4990854;28;20033;-75
2024/02/03 07:10:04;;;;;;;13.52;5.93;;;;;;;;;;5014453;28;20132;-75
2024/02/03 07:12:32;;;;;;;12.57;6.00;;;;;;;;;;4996989;28;20191;-75
2024/02/03 07:14:58;;;;;;;15.23;7.40;;;;;;;;;;4995189;28;20231;-75
2024/02/03 07:17:25;;;;;;;14.15;6.38;;;;;;;;;;4993972;28;20080;-74
2024/02/03 07:19:52;;;;;;;10.65;5.05;;;;;;;;;;5010162;28;20029;-74
2024/02/03 07:22:20;;;;;;;12.10;5.65;;;;;;;;;;5017768;28;20037;-74
2024/02/03 07:24:47;;;;;;;13.48;5.68;;;;;;;;;;4979873;28;20049;-74
2024/02/03 07:27:14;;;;;;;11.32;4.78;;;;;;;;;;5012448;28;20053;-75
2024/02/03 07:29:41;;;;;;;12.30;5.15;;;;;;;;;;4995999;28;20626;-75
2024/02/03 07:32:08;;;;;;;10.82;4.93;;;;;;;;;;5012280;28;20146;-74
2024/02/03 07:34:36;;;;;;;11.63;4.35;;;;;;;;;;4991936;28;20048;-75
2024/02/03 07:37:02;;;;;;;9.38;3.60;;;;;;;;;;4979529;28;20067;-75
2024/02/03 07:39:29;;;;;;;11.45;4.35;;;;;;;;;;5012712;28;20037;-75
2024/02/03 07:41:57;;;;;;;10.20;4.10;;;;;;;;;;4994225;28;20470;-74
2024/02/03 07:44:24;;;;;;;10.52;3.88;;;;;;;;;;4991073;28;20772;-75
2024/02/03 07:46:50;;;;;;;14.43;4.30;;;;;;;;;;4992567;28;20584;-74
2024/02/03 07:49:16;;;;;;;13.43;4.30;;;;;;;;;;4996998;28;21008;-75
2024/02/03 07:51:42;;;;;;;10.05;4.10;;;;;;;;;;4993014;28;20029;-75
2024/02/03 07:54:09;;;;;;;10.20;4.60;;;;;;;;;;4997438;28;20033;-75
2024/02/03 07:56:35;;;;;;;10.80;3.95;;;;;;;;;;4989333;28;20684;-76
2024/02/03 07:59:03;;;;;;;13.20;4.13;;;;;;;;;;4996746;28;20024;-75
2024/02/03 08:01:30;;;;;;;11.80;4.03;;;;;;;;;;5009874;28;20033;-75
2024/02/03 08:03:56;;;;;;;11.50;5.07;;;;;;;;;;4996406;28;20079;-75
2024/02/03 08:06:24;;;;;;;13.45;6.18;;;;;;;;;;5013425;28;20077;-75
2024/02/03 08:08:51;;;;;;;12.68;5.80;;;;;;;;;;4994572;28;20037;-75
2024/02/03 08:11:17;;;;;;;12.60;5.80;;;;;;;;;;4995751;28;20021;-75
2024/02/03 08:13:45;;;;;;;13.25;5.63;;;;;;;;;;4991556;28;20033;-75
2024/02/03 08:16:11;;;;;;;11.45;6.28;;;;;;;;;;4995529;28;20106;-75
2024/02/03 08:18:37;;;;;;;13.98;6.20;;;;;;;;;;5009807;28;20641;-75
2024/02/03 08:21:04;;;;;;;14.02;6.13;;;;;;;;;;5014952;28;20861;-74
2024/02/03 08:23:31;;;;;;;12.75;5.72;;;;;;;;;;4993552;28;20272;-75
2024/02/03 08:25:57;;;;;;;12.38;6.30;;;;;;;;;;4996244;28;20468;-76
2024/02/03 08:28:23;;;;;;;20.40;7.68;;;;;;;;;;5016033;28;20408;-75
2024/02/03 08:30:49;;;;;;;16.75;6.78;;;;;;;;;;4995906;28;20247;-75
2024/02/03 08:33:17;;;;;;;13.73;6.57;;;;;;;;;;4993459;28;20033;-75
2024/02/03 08:35:43;;;;;;;15.65;6.88;;;;;;;;;;4989844;28;21374;-76
2024/02/03 08:38:09;;;;;;;17.02;8.15;;;;;;;;;;5011598;28;20040;-76
2024/02/03 08:40:35;;;;;;;;;;;;;;;;;;5011746;28;20029;-76
2024/02/03 08:43:01;;;;;;;19.40;9.60;;;;;;;;;;5009621;28;19913;-76
2024/02/03 08:45:29;;;;;;;17.63;8.82;;;;;;;;;;4997936;28;20258;-76
2024/02/03 08:47:56;;;;;;;20.17;10.55;;;;;;;;;;4993096;28;20033;-76
2024/02/03 08:50:23;;;;;;;18.10;11.77;;;;;;;;;;5011415;28;20021;-75
2024/02/03 08:52:50;;;;;;;19.73;13.32;;;;;;;;;;4992667;28;20587;-76
2024/02/03 08:55:17;;;;;;;;;;;;;;;;;;5013433;28;20037;-77
2024/02/03 08:57:44;;;;;;;20.77;14.77;;;;;;;;;;5010478;28;20081;-76
2024/02/03 09:00:11;;;;;;;22.92;11.23;;;;;;;;;;5013493;28;20083;-76
2024/02/03 09:02:37;;;;;;;18.38;10.70;;;;;;;;;;5010116;28;20021;-76
2024/02/03 09:05:05;;;;;;;16.25;9.65;;;;;;;;;;4998233;28;20048;-76
2024/02/03 09:07:36;;;;;;;22.38;11.75;;;;;;;;;;4992537;28;20028;-76
2024/02/03 09:10:03;;;;;;;23.95;13.18;;;;;;;;;;5014212;28;20500;-76
2024/02/03 09:12:29;;;;;;;22.55;14.93;;;;;;;;;;4975396;28;20057;-76
2024/02/03 09:14:55;;;;;;;;;;;;;;;;;;4997409;28;20033;-77
2024/02/03 09:17:25;;;;;;;24.33;13.07;;;;;;;;;;5009967;28;19913;-76
2024/02/03 09:19:52;;;;;;;20.85;11.35;;;;;;;;;;4995438;28;20017;-76
2024/02/03 09:22:18;;;;;;;27.02;11.98;;;;;;;;;;5013427;28;20267;-76
2024/02/03 09:24:46;;;;;;;32.40;19.35;;;;;;;;;;5009308;28;20141;-76
2024/02/03 09:27:13;;;;;;;21.27;12.70;;;;;;;;;;4992785;28;20036;-76
2024/02/03 09:29:42;;;;;;;22.75;13.48;;;;;;;;;;4992831;28;20037;-76
2024/02/03 09:32:09;;;;;;;15.70;8.23;;;;;;;;;;4994511;28;20048;-76
2024/02/03 09:34:35;;;;;;;14.68;7.30;;;;;;;;;;4994552;28;20040;-77
2024/02/03 09:37:06;;;;;;;20.67;10.25;;;;;;;;;;5000823;28;20033;-76
2024/02/03 09:39:32;;;;;;;14.40;6.35;;;;;;;;;;5008916;28;20040;-75
2024/02/03 09:41:59;;;;;;;12.43;4.15;;;;;;;;;;5012384;28;20962;-75
2024/02/03 09:44:26;;;;;;;13.75;4.63;;;;;;;;;;4992887;28;20037;-75
2024/02/03 09:46:52;;;;;;;12.02;4.68;;;;;;;;;;5010279;28;20102;-76
2024/02/03 09:49:19;;;;;;;10.32;3.80;;;;;;;;;;5009429;28;20072;-75
2024/02/03 09:51:47;;;;;;;11.65;5.00;;;;;;;;;;5008772;28;20533;-75
2024/02/03 09:54:16;;;;;;;14.00;7.47;;;;;;;;;;4990495;28;20071;-75
2024/02/03 09:56:49;;;;;;;14.88;8.68;;;;;;;;;;4989570;28;20658;-76
2024/02/03 09:59:17;;;;;;;15.48;8.75;;;;;;;;;;5012023;28;20131;-75
2024/02/03 10:01:47;;;;;;;17.05;9.60;;;;;;;;;;5007954;28;21368;-76
2024/02/03 10:04:14;;;;;;;19.92;13.50;;;;;;;;;;4989613;28;20148;-75
2024/02/03 10:06:47;;;;;;;24.20;17.30;;;;;;;;;;4989221;28;20060;-75
2024/02/03 10:09:28;;;;;;;23.02;16.45;;;;;;;;;;4995997;28;20520;-75
2024/02/03 10:11:59;;;;;;;20.83;11.60;;;;;;;;;;4991530;28;20044;-74
2024/02/03 10:14:25;;;;;;;19.52;10.02;;;;;;;;;;5008283;28;20025;-74
2024/02/03 10:16:53;;;;;;;19.33;9.02;;;;;;;;;;5009936;28;20030;-74
2024/02/03 10:19:23;;;;;;;12.90;6.63;;;;;;;;;;5009732;28;20824;-75
2024/02/03 10:21:55;;;;;;;12.57;5.65;;;;;;;;;;4974723;28;20091;-75
2024/02/03 10:24:25;;;;;;;8.90;3.92;;;;;;;;;;4992939;28;20029;-76
2024/02/03 10:27:03;;;;;;;13.18;4.18;;;;;;;;;;5009733;28;20038;-75
2024/02/03 10:29:29;;;;;;;11.68;4.38;;;;;;;;;;5008114;28;20591;-79
2024/02/03 10:31:55;;;;;;;12.95;6.13;;;;;;;;;;4978507;28;20040;-75
2024/02/03 10:34:23;;;;;;;12.88;7.25;;;;;;;;;;5009836;28;20041;-76
2024/02/03 10:36:49;;;;;;;15.85;8.50;;;;;;;;;;4992245;28;20065;-76
2024/02/03 10:39:15;;;;;;;15.18;8.60;;;;;;;;;;4993396;28;20075;-76
2024/02/03 10:41:43;;;;;;;12.35;4.85;;;;;;;;;;4993278;28;20144;-75
2024/02/03 10:44:11;;;;;;;12.00;4.10;;;;;;;;;;4993642;28;20113;-75
2024/02/03 10:46:40;;;;;;;11.23;3.20;;;;;;;;;;5013148;28;20072;-75
2024/02/03 10:49:10;;;;;;;10.27;3.20;;;;;;;;;;5015879;28;20037;-75
2024/02/03 10:51:40;;;;;;;9.50;3.10;;;;;;;;;;5014782;28;20029;-74
2024/02/03 10:54:14;;;;;;;11.80;2.78;;;;;;;;;;5015863;28;20033;-76
2024/02/03 10:56:43;;;;;;;11.38;2.85;;;;;;;;;;4997933;28;20115;-75
2024/02/03 10:59:09;;;;;;;8.57;2.63;;;;;;;;;;4982998;28;20033;-76
2024/02/03 11:01:36;;;;;;;10.43;2.88;;;;;;;;;;4998473;28;20029;-77
2024/02/03 11:04:06;;;;;;;11.38;2.83;;;;;;;;;;5016879;28;20033;-74
2024/02/03 11:06:33;;;;;;;8.15;2.67;;;;;;;;;;5009997;28;20063;-80
2024/02/03 11:09:32;;;;;;;11.05;2.90;;;;;;;;;;4997440;28;20069;-75
2024/02/03 11:11:58;;;;;;;12.13;3.22;;;;;;;;;;4955521;28;20270;-74
2024/02/03 11:14:27;;;;;;;12.95;2.70;;;;;;;;;;4951212;28;20042;-75
2024/02/03 11:17:07;;;;;;;11.00;3.42;;;;;;;;;;4920519;28;21503;-74
2024/02/03 11:19:34;;;;;;;10.25;3.40;;;;;;;;;;4935376;28;20035;-75
2024/02/03 11:22:02;;;;;;;12.10;3.20;;;;;;;;;;4932667;28;20043;-75
2024/02/03 11:24:30;;;;;;;11.20;3.10;;;;;;;;;;4943374;28;20055;-74
2024/02/03 11:27:07;;;;;;;9.90;3.10;;;;;;;;;;4947521;28;20057;-73
2024/02/03 11:29:36;;;;;;;10.45;2.90;;;;;;;;;;4949855;28;20121;-74
2024/02/03 11:32:07;;;;;;;8.68;3.28;;;;;;;;;;4954592;28;20877;-74
2024/02/03 11:34:35;;;;;;;9.32;3.25;;;;;;;;;;4950236;28;20031;-75
2024/02/03 11:37:01;;;;;;;11.45;3.35;;;;;;;;;;4936561;28;20031;-75
2024/02/03 11:39:29;;;;;;;11.55;3.55;;;;;;;;;;4950687;28;20031;-75
2024/02/03 11:41:55;;;;;;;9.13;3.63;;;;;;;;;;4953748;28;20734;-74
2024/02/03 11:44:23;;;;;;;11.68;3.67;;;;;;;;;;4936450;28;20031;-75
2024/02/03 11:46:49;;;;;;;10.88;3.80;;;;;;;;;;4962732;28;20133;-75
2024/02/03 11:49:17;;;;;;;11.80;3.80;;;;;;;;;;4991914;28;20140;-75
2024/02/03 11:51:43;;;;;;;9.88;3.70;;;;;;;;;;5007515;28;20211;-75
2024/02/03 11:54:11;;;;;;;10.52;3.50;;;;;;;;;;4978435;28;20455;-74
2024/02/03 11:56:37;;;;;;;13.48;4.07;;;;;;;;;;4992662;28;20302;-73
2024/02/03 11:59:14;;;;;;;10.75;3.38;;;;;;;;;;5013891;28;20026;-74
2024/02/03 12:01:41;;;;;;;13.10;2.95;;;;;;;;;;5008512;28;20705;-74
2024/02/03 12:04:09;;;;;;;10.30;3.35;;;;;;;;;;5013060;28;20033;-74
2024/02/03 12:06:36;;;;;;;11.88;3.72;;;;;;;;;;5010231;28;20211;-75
2024/02/03 12:09:04;;;;;;;9.73;3.28;;;;;;;;;;4994932;28;20032;-75
2024/02/03 12:11:31;;;;;;;8.75;2.92;;;;;;;;;;4975617;28;20052;-74
2024/02/03 12:13:57;;;;;;;8.10;2.65;;;;;;;;;;4991493;28;20033;-76
2024/02/03 12:16:26;;;;;;;10.25;3.45;;;;;;;;;;5008241;28;21017;-74
2024/02/03 12:19:01;;;;;;;9.95;3.03;;;;;;;;;;5013465;28;20108;-75
2024/02/03 12:21:28;;;;;;;8.88;2.90;;;;;;;;;;5010575;28;20726;-74
2024/02/03 12:23:55;;;;;;;8.93;2.92;;;;;;;;;;4994605;28;20439;-76
2024/02/03 12:26:23;;;;;;;8.52;2.78;;;;;;;;;;5012525;28;20504;-75
2024/02/03 12:28:49;;;;;;;9.63;2.92;;;;;;;;;;5011724;28;20033;-75
2024/02/03 12:31:16;;;;;;;8.70;2.92;;;;;;;;;;4995339;28;21051;-75
2024/02/03 12:33:43;;;;;;;8.38;2.58;;;;;;;;;;5009272;28;20052;-76
2024/02/03 12:36:09;;;;;;;8.98;2.90;;;;;;;;;;5011191;28;20624;-76
2024/02/03 12:38:37;;;;;;;9.35;2.47;;;;;;;;;;5010811;28;20026;-75
2024/02/03 12:41:04;;;;;;;8.82;2.67;;;;;;;;;;5014422;28;20557;-75
2024/02/03 12:43:31;;;;;;;8.77;2.75;;;;;;;;;;4994403;28;20020;-75
2024/02/03 12:45:59;;;;;;;8.73;2.67;;;;;;;;;;5017911;28;20033;-75
2024/02/03 12:48:27;;;;;;;9.10;2.30;;;;;;;;;;5010642;28;20075;-75
2024/02/03 12:50:57;;;;;;;10.60;3.03;;;;;;;;;;4995765;28;20040;-74
2024/02/03 12:53:24;;;;;;;8.48;2.85;;;;;;;;;;5000753;28;20073;-75
2024/02/03 12:55:51;;;;;;;12.48;3.28;;;;;;;;;;5017717;28;20042;-75
2024/02/03 12:58:18;;;;;;;9.48;3.03;;;;;;;;;;5013923;28;20792;-74
2024/02/03 13:00:48;;;;;;;10.02;3.10;;;;;;;;;;4998267;28;20036;-75
2024/02/03 13:03:14;;;;;;;8.52;3.10;;;;;;;;;;5014854;28;20029;-74
2024/02/03 13:05:42;;;;;;;8.20;2.83;;;;;;;;;;4996001;28;20073;-75
2024/02/03 13:08:10;;;;;;;10.27;2.78;;;;;;;;;;4999776;28;20043;-75
2024/02/03 13:10:38;;;;;;;9.75;3.63;;;;;;;;;;4975338;28;20066;-75
2024/02/03 13:13:04;;;;;;;12.88;3.47;;;;;;;;;;5002946;28;20704;-75
2024/02/03 13:15:30;;;;;;;10.65;3.97;;;;;;;;;;5002368;28;20713;-75
2024/02/03 13:17:59;;;;;;;10.80;3.38;;;;;;;;;;4990539;28;20048;-76
2024/02/03 13:20:25;;;;;;;10.18;3.55;;;;;;;;;;5005475;28;20037;-78
2024/02/03 13:22:53;;;;;;;11.02;3.58;;;;;;;;;;5011316;28;20045;-74
2024/02/03 13:25:20;;;;;;;12.02;3.63;;;;;;;;;;4991407;28;20056;-74
2024/02/03 13:27:46;;;;;;;9.68;3.20;;;;;;;;;;5002015;28;21016;-75
2024/02/03 13:30:15;;;;;;;13.18;4.35;;;;;;;;;;4993861;28;20759;-74
2024/02/03 13:32:43;;;;;;;9.35;3.30;;;;;;;;;;5004791;28;20537;-74
2024/02/03 13:35:15;;;;;;;12.73;3.90;;;;;;;;;;5002248;28;20049;-74
2024/02/03 13:37:42;;;;;;;11.68;3.85;;;;;;;;;;5003665;28;20022;-74
2024/02/03 13:40:09;;;;;;;10.70;3.63;;;;;;;;;;5005314;28;20020;-75
2024/02/03 13:42:35;;;;;;;12.38;3.40;;;;;;;;;;5005136;28;20029;-71
2024/02/03 13:45:06;;;;;;;10.13;3.50;;;;;;;;;;5004762;28;20029;-72
2024/02/03 13:47:32;;;;;;;10.68;3.28;;;;;;;;;;4987918;28;20041;-73
2024/02/03 13:49:59;;;;;;;11.60;3.72;;;;;;;;;;4991758;28;20045;-72
2024/02/03 13:52:26;;;;;;;9.35;3.35;;;;;;;;;;4987792;28;20045;-72
2024/02/03 13:54:54;;;;;;;8.73;3.10;;;;;;;;;;5005590;28;20083;-73
2024/02/03 13:57:21;;;;;;;13.90;3.47;;;;;;;;;;5006208;28;20033;-72
2024/02/03 13:59:47;;;;;;;12.65;3.90;;;;;;;;;;4989370;28;20049;-73
2024/02/03 14:02:13;;;;;;;12.45;4.05;;;;;;;;;;4987523;28;20042;-72
2024/02/03 14:04:42;;;;;;;11.20;4.30;;;;;;;;;;5004209;28;20953;-72
2024/02/03 14:07:09;;;;;;;11.40;3.65;;;;;;;;;;4991996;28;20036;-72
2024/02/03 14:09:35;;;;;;;10.75;3.70;;;;;;;;;;5002498;28;20108;-73
2024/02/03 14:12:03;;;;;;;11.85;3.38;;;;;;;;;;5011131;28;20036;-73
2024/02/03 14:14:31;;;;;;;12.05;3.47;;;;;;;;;;5010074;28;20575;-73
2024/02/03 14:17:03;;;;;;;10.13;3.60;;;;;;;;;;4995903;28;20583;-74
2024/02/03 14:22:38;;;;;;;11.93;3.88;;;;;;;;;;5014671;28;20079;-84
2024/02/03 14:25:07;;;;;;;11.25;3.58;;;;;;;;;;4997572;28;20620;-84
2024/02/03 14:27:35;;;;;;;11.50;3.40;;;;;;;;;;5012503;28;20025;-84
2024/02/03 14:30:05;;;;;;;11.45;3.55;;;;;;;;;;5016652;28;20025;-83
2024/02/03 14:32:31;;;;;;;10.75;2.85;;;;;;;;;;5015230;28;20040;-84
2024/02/03 14:35:00;;;;;;;10.25;2.97;;;;;;;;;;5019127;28;20037;-84
2024/02/03 14:37:27;;;;;;;11.43;3.28;;;;;;;;;;5004942;28;20033;-86